首页
METAR-TAF:

METAR-TAF

机场 :

长沙黄花国际机场

长沙, 中华人民共和国

纬度: 28-11N, 经度: 113-13E, 海拔: 66米

当前天气观测

该预报发布于51分钟前的02:00 UTC
风速8节,风向北转西北
温度 4°C
湿度 93%
气压 1027 hPa
能見度: 2200
散云层高于400英尺
多云层高于700英尺
阴天层高于5000英尺
小雨, 轻雾

METAR: ZGHA 170200Z 33004MPS 2200 -RA BR SCT004 BKN007 OVC050 04/03 Q1027 NOSIG

时间: 10:51 (02:51 UTC)

预报

该预报发布于7小时和46分钟前的19:05 UTC
预报有效从17日的 00点(UTC)到 17日的 24点(UTC)
风速8节,风向北转西北
能見度: 4000
散云层高于500英尺
多云层高于800英尺
阴天层高于5000英尺
小雨, 轻雾

TAF: ZGHA 161905Z 1700/1724 34004MPS 4000 -RA BR SCT005 BKN008 OVC050 TX05/1707Z TN03/1722Z

超过4000个机场的气象观测和天气预报(METAR&TAF报告)。

可查询的气象台以黄色和红色小点在地图上表示。

将鼠标移到小点上方,可查看气象台名称。

然后点击查看天气观测和预报。

如需切换地图:点击带黑十字的绿色按钮放大地图;点击带横线的绿色按钮缩小地图;或者点击绿色箭头查看邻近地区的地图。


METAR-TAF: